TimeEST,TemperatureF,Dew PointF,Humidity,Sea Level PressureIn,VisibilityMPH,Wind Direction,Wind SpeedMPH,Gust SpeedMPH,PrecipitationIn,Events,Conditions,WindDirDegrees,DateUTC
12:15 AM,57.6,52.9,84,30.29,10.0,North,-9999.0,-,N/A,,Overcast,0,2012-12-03 05:15:00
12:35 AM,57.2,52.9,85,30.29,10.0,North,-9999.0,-,N/A,,Overcast,0,2012-12-03 05:35:00
12:55 AM,57.2,52.9,85,30.30,10.0,North,-9999.0,-,N/A,,Overcast,0,2012-12-03 05:55:00
1:15 AM,56.7,52.7,87,30.29,10.0,North,-9999.0,-,N/A,,Overcast,0,2012-12-03 06:15:00
1:35 AM,56.3,52.5,87,30.30,10.0,North,-9999.0,-,N/A,,Overcast,0,2012-12-03 06:35:00
1:55 AM,56.3,52.7,88,30.30,10.0,North,-9999.0,-,N/A,,Overcast,0,2012-12-03 06:55:00
2:15 AM,56.1,52.7,88,30.30,10.0,North,-9999.0,-,N/A,,Overcast,0,2012-12-03 07:15:00
2:35 AM,55.8,52.7,89,30.30,10.0,North,-9999.0,-,N/A,,Light Drizzle,0,2012-12-03 07:35:00
2:55 AM,55.4,52.7,91,30.30,10.0,North,-9999.0,-,N/A,,Overcast,0,2012-12-03 07:55:00
3:15 AM,55.0,53.1,93,30.30,10.0,North,-9999.0,-,N/A,,Overcast,0,2012-12-03 08:15:00
3:35 AM,54.7,52.7,93,30.30,10.0,North,-9999.0,-,N/A,,Overcast,0,2012-12-03 08:35:00
3:55 AM,54.7,52.9,94,30.30,10.0,North,-9999.0,-,N/A,,Overcast,0,2012-12-03 08:55:00
4:15 AM,54.7,52.7,93,30.30,10.0,North,-9999.0,-,N/A,,Overcast,0,2012-12-03 09:15:00
4:35 AM,54.7,52.5,92,30.30,10.0,North,-9999.0,-,N/A,,Overcast,0,2012-12-03 09:35:00
4:55 AM,54.7,52.5,92,30.30,10.0,North,-9999.0,-,N/A,,Overcast,0,2012-12-03 09:55:00
5:15 AM,54.7,52.5,92,30.30,10.0,North,-9999.0,-,N/A,,Overcast,0,2012-12-03 10:15:00
5:35 AM,54.7,52.9,94,30.30,10.0,North,-9999.0,-,N/A,,Overcast,0,2012-12-03 10:35:00
5:55 AM,54.7,52.5,92,30.30,10.0,North,-9999.0,-,N/A,,Overcast,0,2012-12-03 10:55:00
6:15 AM,54.7,52.7,93,30.30,10.0,North,-9999.0,-,N/A,,Overcast,0,2012-12-03 11:15:00
6:35 AM,54.5,52.5,93,30.31,10.0,North,-9999.0,-,N/A,,Overcast,0,2012-12-03 11:35:00
6:55 AM,54.1,52.3,94,30.31,10.0,North,-9999.0,-,N/A,,Overcast,0,2012-12-03 11:55:00
7:15 AM,54.0,52.3,94,30.32,10.0,North,-9999.0,-,N/A,,Overcast,0,2012-12-03 12:15:00
7:35 AM,53.6,52.0,94,30.32,10.0,North,-9999.0,-,N/A,,Overcast,0,2012-12-03 12:35:00
7:55 AM,54.5,52.7,94,30.33,10.0,North,-9999.0,-,N/A,,Overcast,0,2012-12-03 12:55:00
8:15 AM,55.0,52.9,92,30.33,10.0,North,-9999.0,-,N/A,,Overcast,0,2012-12-03 13:15:00
8:35 AM,55.6,53.4,92,30.33,10.0,North,-9999.0,-,N/A,,Overcast,0,2012-12-03 13:35:00
8:55 AM,56.5,53.8,91,30.34,10.0,North,-9999.0,-,N/A,,Overcast,0,2012-12-03 13:55:00
9:15 AM,57.2,54.5,91,30.34,10.0,North,-9999.0,-,N/A,,Overcast,0,2012-12-03 14:15:00
9:35 AM,58.3,54.7,88,30.35,10.0,North,-9999.0,-,N/A,,Overcast,0,2012-12-03 14:35:00
9:55 AM,58.3,55.2,90,30.35,10.0,North,-9999.0,-,N/A,Rain,Light Rain,0,2012-12-03 14:55:00
10:15 AM,59.9,55.6,86,30.35,10.0,North,-9999.0,-,N/A,,Overcast,0,2012-12-03 15:15:00
10:35 AM,61.9,54.1,76,30.35,10.0,North,-9999.0,-,N/A,,Overcast,0,2012-12-03 15:35:00
10:55 AM,62.4,54.3,75,30.34,10.0,North,-9999.0,-,N/A,,Overcast,0,2012-12-03 15:55:00
11:15 AM,63.7,54.7,72,30.33,10.0,North,-9999.0,-,N/A,,Overcast,0,2012-12-03 16:15:00
11:55 AM,67.1,54.9,65,30.31,10.0,North,-9999.0,-,N/A,,Scattered Clouds,0,2012-12-03 16:55:00
12:15 PM,68.0,55.2,64,30.30,10.0,North,-9999.0,-,N/A,,Scattered Clouds,0,2012-12-03 17:15:00
12:35 PM,67.8,55.2,64,30.29,10.0,North,-9999.0,-,N/A,,Mostly Cloudy,0,2012-12-03 17:35:00
12:55 PM,68.5,55.4,63,30.29,10.0,North,-9999.0,-,N/A,,Mostly Cloudy,0,2012-12-03 17:55:00
1:15 PM,70.9,55.8,59,30.28,10.0,North,-9999.0,-,N/A,,Scattered Clouds,0,2012-12-03 18:15:00
1:35 PM,70.0,55.6,60,30.28,10.0,North,-9999.0,-,N/A,,Scattered Clouds,0,2012-12-03 18:35:00
1:55 PM,69.4,55.8,62,30.27,10.0,North,-9999.0,-,N/A,,Scattered Clouds,0,2012-12-03 18:55:00
2:15 PM,70.7,56.1,60,30.26,10.0,North,-9999.0,-,N/A,,Clear,0,2012-12-03 19:15:00
2:35 PM,71.4,56.5,59,30.26,10.0,North,-9999.0,-,N/A,,Mostly Cloudy,0,2012-12-03 19:35:00
2:55 PM,71.1,55.9,59,30.26,10.0,North,-9999.0,-,N/A,,Mostly Cloudy,0,2012-12-03 19:55:00
3:15 PM,71.2,55.9,58,30.25,10.0,North,-9999.0,-,N/A,,Scattered Clouds,0,2012-12-03 20:15:00
3:35 PM,70.0,55.8,61,30.25,10.0,North,-9999.0,-,N/A,,Scattered Clouds,0,2012-12-03 20:35:00
3:55 PM,69.1,55.6,62,30.25,10.0,North,-9999.0,-,N/A,,Clear,0,2012-12-03 20:55:00
4:15 PM,66.4,56.1,69,30.25,10.0,North,-9999.0,-,N/A,,Clear,0,2012-12-03 21:15:00
4:35 PM,63.9,55.8,75,30.25,10.0,North,-9999.0,-,N/A,,Clear,0,2012-12-03 21:35:00
4:55 PM,61.7,55.4,80,30.26,10.0,North,-9999.0,-,N/A,,Clear,0,2012-12-03 21:55:00
5:15 PM,59.4,54.3,83,30.26,10.0,North,-9999.0,-,N/A,,Clear,0,2012-12-03 22:15:00
5:35 PM,57.4,53.4,87,30.26,10.0,North,-9999.0,-,N/A,,Clear,0,2012-12-03 22:35:00
5:55 PM,55.4,51.6,87,30.27,10.0,North,-9999.0,-,N/A,,Clear,0,2012-12-03 22:55:00
6:15 PM,54.5,51.6,90,30.27,10.0,North,-9999.0,-,N/A,,Clear,0,2012-12-03 23:15:00
6:35 PM,53.6,51.6,93,30.27,10.0,North,-9999.0,-,N/A,,Clear,0,2012-12-03 23:35:00
6:55 PM,52.3,50.5,94,30.28,10.0,North,-9999.0,-,N/A,,Clear,0,2012-12-03 23:55:00
7:15 PM,51.6,50.0,94,30.28,10.0,North,-9999.0,-,N/A,,Clear,0,2012-12-04 00:15:00
7:55 PM,50.5,49.3,95,30.28,10.0,North,-9999.0,-,N/A,,Clear,0,2012-12-04 00:55:00
8:15 PM,49.5,48.4,96,30.28,10.0,North,-9999.0,-,N/A,,Clear,0,2012-12-04 01:15:00
8:35 PM,49.3,48.6,97,30.28,10.0,North,-9999.0,-,N/A,,Clear,0,2012-12-04 01:35:00
8:55 PM,48.6,47.8,97,30.28,10.0,North,-9999.0,-,N/A,,Clear,0,2012-12-04 01:55:00
9:15 PM,48.2,47.3,97,30.27,10.0,North,-9999.0,-,N/A,,Clear,0,2012-12-04 02:15:00
9:35 PM,48.0,47.3,97,30.27,10.0,North,-9999.0,-,N/A,,Clear,0,2012-12-04 02:35:00
9:55 PM,47.3,46.6,97,30.27,10.0,North,-9999.0,-,N/A,,Clear,0,2012-12-04 02:55:00
10:15 PM,46.9,46.6,99,30.28,10.0,North,-9999.0,-,N/A,,Clear,0,2012-12-04 03:15:00
10:35 PM,46.8,46.2,98,30.28,10.0,North,-9999.0,-,N/A,,Scattered Clouds,0,2012-12-04 03:35:00
10:55 PM,47.3,47.1,99,30.28,10.0,North,-9999.0,-,N/A,,Mostly Cloudy,0,2012-12-04 03:55:00
11:15 PM,46.9,46.8,99,30.29,10.0,North,-9999.0,-,N/A,,Mostly Cloudy,0,2012-12-04 04:15:00
11:35 PM,47.1,46.8,99,30.29,10.0,North,-9999.0,-,N/A,,Mostly Cloudy,0,2012-12-04 04:35:00
11:55 PM,47.1,46.9,99,30.30,10.0,North,-9999.0,-,N/A,,Mostly Cloudy,0,2012-12-04 04:55:00